Date,TemperatureHighF,TemperatureAvgF,TemperatureLowF,DewpointHighF,DewpointAvgF,DewpointLowF,HumidityHigh,HumidityAvg,HumidityLow,PressureMaxIn,PressureMinIn,WindSpeedMaxMPH,WindSpeedAvgMPH,GustSpeedMaxMPH,PrecipitationSumIn
2013-1-1,46,36,29,43,29,23,88,75,53,0.00,40.00,12,9,18,0.00
2013-1-2,45,33,26,26,24,22,89,70,39,0.00,40.00,8,4,13,0.00
2013-1-3,49,36,24,30,23,20,88,61,34,0.00,40.00,9,5,17,0.00
2013-1-4,48,41,36,35,30,23,88,65,45,0.00,40.00,10,5,16,0.01
2013-1-5,59,46,36,35,30,23,93,60,27,0.00,40.00,10,6,19,0.01
2013-1-6,57,41,28,28,23,19,76,50,26,0.00,40.00,8,5,12,0.00
2013-1-7,53,43,31,32,27,19,89,55,34,0.00,40.00,10,6,17,0.00
2013-1-8,49,46,43,48,41,32,97,83,60,0.00,40.00,9,6,14,0.32
2013-1-9,54,50,47,53,49,46,98,98,97,0.00,40.00,15,8,27,1.32
2013-1-10,55,52,49,53,47,44,98,85,72,0.00,40.00,12,7,20,0.23
2013-1-11,74,60,48,55,47,40,82,64,42,0.00,40.00,16,10,31,0.00
2013-1-12,63,48,32,56,34,18,85,59,41,0.00,40.00,17,10,26,0.00
2013-1-13,40,31,26,18,16,14,71,54,37,0.00,40.00,15,9,22,0.00
2013-1-14,44,32,23,21,16,13,70,52,29,0.00,40.00,9,6,15,0.00
2013-1-15,38,32,26,20,18,14,65,55,45,0.00,40.00,10,7,19,0.00
2013-1-16,51,36,23,26,16,11,70,48,20,0.00,40.00,10,6,17,0.00
2013-1-17,60,45,35,32,28,19,77,53,30,0.00,40.00,10,6,14,0.00
2013-1-18,64,49,33,31,29,26,77,49,27,0.00,40.00,10,6,15,0.00
2013-1-19,70,55,42,36,32,29,67,45,23,0.00,40.00,12,7,20,0.00
2013-1-20,70,52,35,41,36,31,90,58,31,0.00,40.00,6,4,9,0.00
2013-1-21,53,43,35,36,26,20,76,53,30,0.00,40.00,11,5,15,0.00
2013-1-22,71,51,35,43,33,21,74,52,30,0.00,40.00,11,5,20,0.00
2013-1-23,78,61,49,53,47,43,85,63,34,0.00,40.00,9,6,16,0.00
2013-1-24,74,59,45,56,46,36,88,64,44,0.00,40.00,12,8,20,0.00
2013-1-25,55,43,37,40,35,31,89,73,47,0.00,40.00,8,5,15,0.00
2013-1-26,63,49,36,50,39,33,93,72,40,0.00,40.00,10,5,19,0.00
2013-1-27,76,63,53,57,54,50,92,74,46,0.00,40.00,14,9,27,0.00
2013-1-28,81,70,63,64,60,56,92,71,44,0.00,40.00,15,9,28,0.00
2013-1-29,75,65,51,63,47,19,85,58,20,0.00,40.00,19,12,34,0.00
2013-1-30,52,45,37,31,21,11,63,41,21,0.00,40.00,21,13,30,0.00
2013-1-31,68,58,37,27,18,12,44,22,14,0.00,40.00,14,9,24,0.00
2013-2-1,61,45,29,32,25,19,71,47,25,0.00,40.00,13,8,20,0.00
2013-2-2,67,54,44,37,31,22,69,45,18,0.00,40.00,12,6,20,0.00
2013-2-3,71,54,36,34,25,16,71,38,13,0.00,40.00,13,8,21,0.00
2013-2-4,76,63,55,48,40,22,67,44,24,0.00,40.00,10,7,18,0.00
2013-2-5,66,53,45,53,43,30,95,71,46,0.00,40.00,10,5,16,0.00
2013-2-6,75,64,53,60,55,52,98,78,47,0.00,40.00,11,8,21,0.00
2013-2-7,68,60,48,57,49,38,90,70,37,0.00,40.00,16,11,26,0.00
2013-2-8,63,50,36,39,25,10,79,44,12,0.00,40.00,9,6,15,0.00
2013-2-9,59,53,48,57,45,24,96,77,34,0.00,40.00,16,12,25,0.00
2013-2-10,67,58,49,60,28,12,94,39,12,0.00,40.00,13,8,37,0.53
2013-2-11,55,49,45,38,30,16,71,47,31,0.00,40.00,13,9,19,0.00
2013-2-12,49,44,38,44,40,34,96,87,71,0.00,40.00,14,7,23,0.32
2013-2-13,60,45,31,36,29,20,94,61,22,0.00,40.00,11,7,23,0.01
2013-2-14,70,55,40,32,25,19,61,36,14,0.00,40.00,8,5,15,0.00
2013-2-15,50,45,33,34,25,15,68,47,26,0.00,40.00,14,9,24,0.00
2013-2-16,62,45,31,28,23,19,74,46,22,0.00,40.00,7,5,14,0.00
2013-2-17,74,60,46,38,26,18,50,30,12,0.00,40.00,16,12,26,0.00
2013-2-18,69,58,47,50,39,26,74,51,24,0.00,40.00,17,12,29,0.00
2013-2-19,60,50,39,30,23,14,58,37,16,0.00,40.00,13,8,20,0.00
2013-2-20,48,43,41,41,38,30,92,81,50,0.00,40.00,16,12,26,0.37
2013-2-21,63,48,39,45,36,26,97,72,25,0.00,40.00,18,12,34,0.28
2013-2-22,49,36,26,32,22,18,79,57,36,0.00,40.00,14,7,25,0.10
2013-2-23,61,43,29,32,27,23,86,57,27,0.00,40.00,7,4,16,0.00
2013-2-24,71,56,41,42,36,29,66,50,32,0.00,40.00,15,12,25,0.00
2013-2-25,58,44,35,50,37,30,92,75,56,0.00,40.00,24,15,36,0.06
2013-2-26,57,43,33,31,28,25,77,59,30,0.00,40.00,22,9,34,0.01
2013-2-27,54,44,33,31,26,17,84,54,23,0.00,40.00,17,10,34,0.00
2013-2-28,58,43,30,29,25,18,84,53,22,0.00,40.00,14,7,24,0.00
2013-3-1,59,44,32,29,25,21,75,49,24,0.00,40.00,16,7,31,0.00
2013-3-2,61,44,28,29,27,25,89,56,28,0.00,40.00,9,6,15,0.00
2013-3-3,80,61,39,38,26,20,69,33,11,0.00,40.00,17,10,30,0.00
2013-3-4,88,72,51,38,25,17,59,19,9,0.00,40.00,18,12,33,0.00
2013-3-5,55,47,40,37,18,10,65,34,17,0.00,40.00,20,12,39,0.00
2013-3-6,61,46,28,25,18,11,78,38,16,0.00,40.00,11,6,17,0.00
2013-3-7,74,59,41,41,27,16,53,31,17,0.00,40.00,15,10,23,0.00
2013-3-8,63,59,55,58,52,41,87,76,53,0.00,40.00,15,10,25,0.00
2013-3-9,78,65,58,60,57,49,97,77,44,0.00,40.00,16,9,27,0.44
2013-3-10,61,51,41,52,28,19,73,42,33,0.00,40.00,21,13,35,0.40
2013-3-11,67,47,30,25,20,17,57,37,15,0.00,40.00,10,7,16,0.00
2013-3-12,69,55,44,32,26,22,53,34,22,0.00,40.00,12,8,19,0.00
2013-3-13,71,56,40,38,33,22,75,45,26,0.00,40.00,10,6,19,0.00
2013-3-14,80,63,48,41,38,35,69,42,21,0.00,40.00,12,8,21,0.00
2013-3-15,85,70,56,48,42,37,66,40,20,0.00,40.00,14,10,24,0.00
2013-3-16,90,75,61,50,45,41,62,37,18,0.00,40.00,14,11,25,0.00
2013-3-17,69,57,47,48,40,36,68,54,37,0.00,40.00,11,7,18,0.00
2013-3-18,68,61,51,49,42,34,68,50,35,0.00,40.00,15,9,24,0.00
2013-3-19,65,57,47,46,39,34,67,52,40,0.00,40.00,14,8,21,0.00
2013-3-20,69,57,46,35,28,23,59,36,19,0.00,40.00,10,6,16,0.00
2013-3-21,77,64,52,54,39,23,53,40,28,0.00,40.00,15,12,28,0.00
2013-3-22,71,53,45,54,43,37,76,68,53,0.00,40.00,16,10,27,0.00
2013-3-23,55,50,45,49,45,39,95,85,69,0.00,40.00,15,6,27,0.16
2013-3-24,52,42,33,45,23,9,90,51,20,0.00,40.00,21,14,35,0.09
2013-3-25,52,41,27,23,15,9,65,39,17,0.00,40.00,12,7,21,0.00
2013-3-26,63,46,28,23,18,12,78,37,16,0.00,40.00,11,5,18,0.00
2013-3-27,73,55,42,38,28,23,49,37,26,0.00,40.00,17,12,27,0.00
2013-3-28,75,71,65,53,52,51,65,52,46,0.00,40.00,15,11,25,0.00
2013-3-29,79,68,59,57,54,51,86,63,41,0.00,40.00,14,9,22,0.00
2013-3-30,84,70,56,60,55,-100,95,66,38,0.00,40.00,11,7,21,0.46
2013-3-31,77,69,62,60,51,45,80,55,34,0.00,40.00,14,8,28,0.00
2013-4-1,81,67,53,53,47,44,81,52,27,0.00,40.00,10,6,18,0.00
2013-4-2,67,54,44,59,49,43,96,85,46,0.00,40.00,12,9,20,0.50
2013-4-3,46,44,41,44,42,39,96,95,90,0.00,40.00,14,9,23,0.48
2013-4-4,49,42,39,39,38,36,95,84,68,0.00,40.00,11,8,17,0.04
2013-4-5,71,54,35,45,41,34,95,66,38,0.00,40.00,11,7,17,0.01
2013-4-6,80,67,56,55,48,44,69,51,31,0.00,40.00,17,11,27,0.00
2013-4-7,81,69,58,62,58,54,88,69,50,0.00,40.00,17,12,27,0.00
2013-4-8,77,70,65,63,61,59,82,73,59,0.00,40.00,16,12,25,0.00
2013-4-9,84,72,45,65,59,35,81,66,50,0.00,40.00,20,14,35,0.00
2013-4-10,48,40,33,36,33,29,93,78,59,0.00,40.00,16,12,26,0.46
2013-4-11,64,49,36,39,33,27,86,58,30,0.00,40.00,8,4,16,0.06
2013-4-12,77,61,46,45,40,35,78,49,25,0.00,40.00,11,6,26,0.00
2013-4-13,80,68,58,45,40,37,62,39,23,0.00,40.00,15,9,23,0.00
2013-4-14,92,74,58,56,44,26,78,43,10,0.00,40.00,15,10,23,0.00
2013-4-15,92,80,69,63,55,41,63,44,31,0.00,40.00,15,11,25,0.00
2013-4-16,88,77,67,65,63,62,86,64,44,0.00,40.00,14,10,25,0.00
2013-4-17,85,77,72,68,66,63,86,70,51,0.00,40.00,23,16,37,0.00
2013-4-18,75,51,42,67,38,26,93,63,36,0.00,40.00,20,16,42,0.29
2013-4-19,66,49,36,30,25,20,73,43,18,0.00,40.00,12,7,20,0.01
2013-4-20,72,60,49,31,27,23,45,31,17,0.00,40.00,17,12,29,0.00
2013-4-21,74,62,51,50,45,30,78,55,33,0.00,40.00,15,11,26,0.00
2013-4-22,82,69,57,56,53,48,83,58,39,0.00,40.00,16,12,28,0.00
2013-4-23,73,51,40,56,41,31,84,69,49,0.00,40.00,15,12,25,0.00
2013-4-24,62,49,34,32,26,22,71,45,23,0.00,40.00,15,8,28,0.00
2013-4-25,75,62,51,41,34,27,53,37,18,0.00,40.00,14,9,24,0.00
2013-4-26,82,69,61,61,52,41,72,56,42,0.00,40.00,15,10,25,0.00
2013-4-27,79,68,59,62,52,39,85,60,28,0.00,40.00,11,8,20,0.00
2013-4-28,90,71,54,60,53,45,90,58,22,0.00,40.00,10,6,19,0.00
2013-4-29,89,75,65,61,55,44,77,53,22,0.00,40.00,14,9,22,0.00
2013-4-30,88,81,66,60,57,53,70,45,30,0.00,40.00,13,12,23,0.00
2013-5-1,86,75,61,64,61,49,82,62,44,0.00,40.00,15,9,30,0.00
2013-5-2,61,45,42,49,37,31,92,75,53,0.00,40.00,22,15,36,0.02
2013-5-3,67,51,37,32,25,14,76,44,15,0.00,40.00,15,9,27,0.01
2013-5-4,75,61,43,34,25,16,65,29,14,0.00,40.00,15,8,26,0.00
2013-5-5,71,56,44,42,38,16,76,52,19,0.00,40.00,11,7,19,0.00
2013-5-6,79,64,53,47,44,41,79,52,27,0.00,40.00,9,5,17,0.00
2013-5-7,87,72,56,54,47,43,73,45,22,0.00,40.00,11,6,20,0.00
2013-5-8,84,75,65,61,55,45,65,51,40,0.00,40.00,15,10,25,0.01
2013-5-9,77,69,63,65,60,51,85,72,45,0.00,40.00,14,8,25,0.04
2013-5-10,84,68,59,62,54,-100,98,69,37,0.00,40.00,14,6,24,0.02
2013-5-11,84,69,56,55,45,-100,87,50,21,0.00,40.00,12,7,22,0.01
2013-5-12,80,70,60,50,42,37,66,38,23,0.00,40.00,10,7,17,0.00
2013-5-13,92,75,61,47,41,35,49,33,14,0.00,40.00,13,8,22,0.00
2013-5-14,90,77,65,55,50,41,56,40,26,0.00,40.00,14,10,25,0.00
2013-5-15,89,77,68,64,61,52,77,58,39,0.00,40.00,13,10,26,0.00
2013-5-16,95,68,62,69,39,-100,91,67,34,0.00,40.00,14,8,22,0.00
2013-5-17,102,82,72,73,61,-100,95,66,33,0.00,40.00,17,10,26,0.01
2013-5-18,96,85,74,72,67,60,90,59,33,0.00,40.00,17,11,28,0.01
2013-5-19,100,85,72,67,63,53,72,51,21,0.00,40.00,16,12,27,0.00
2013-5-20,96,82,73,74,66,55,81,60,42,0.00,40.00,16,12,29,0.17
2013-5-21,78,71,58,69,59,49,93,68,40,0.00,40.00,17,9,35,0.13
2013-5-22,92,75,57,58,49,36,84,49,14,0.00,40.00,12,8,22,0.07
2013-5-23,89,79,70,71,67,56,93,67,49,0.00,40.00,16,9,26,0.00
2013-5-24,83,75,66,72,67,62,94,79,61,0.00,40.00,16,9,26,0.46
2013-5-25,83,72,65,70,65,61,95,79,53,0.00,40.00,15,9,24,0.43
2013-5-26,91,79,71,69,67,64,89,69,45,0.00,40.00,14,11,24,0.01
2013-5-27,86,78,70,69,67,66,86,70,55,0.00,40.00,17,12,30,0.00
2013-5-28,84,78,71,69,66,63,82,68,52,0.00,40.00,24,13,37,0.00
2013-5-29,86,79,73,70,67,65,77,67,50,0.00,40.00,20,15,34,0.00
2013-5-30,93,82,74,69,68,66,78,63,44,0.00,40.00,17,14,30,0.00
2013-5-31,98,86,75,71,69,67,84,59,38,0.00,40.00,16,12,27,0.00
2013-6-1,87,82,74,73,65,52,80,59,40,0.00,40.00,13,9,24,0.00
2013-6-2,88,76,65,58,52,44,73,46,23,0.00,40.00,9,7,19,0.00
2013-6-3,95,80,66,58,52,46,62,42,22,0.00,40.00,13,9,20,0.00
2013-6-4,96,84,73,67,62,58,70,49,31,0.00,40.00,17,12,31,0.00
2013-6-5,97,84,74,65,62,58,73,49,30,0.00,40.00,16,8,31,0.00
2013-6-6,81,74,66,67,63,61,95,73,53,0.00,40.00,20,8,34,1.75
2013-6-7,85,74,62,65,58,50,97,62,31,0.00,40.00,8,5,15,0.04
2013-6-8,90,78,65,58,54,49,66,46,27,0.00,40.00,12,9,21,0.00
2013-6-9,91,78,64,66,62,56,96,61,37,0.00,40.00,13,6,38,1.09
2013-6-10,98,86,71,70,61,52,81,48,22,0.00,40.00,11,7,19,0.05
2013-6-11,96,85,73,70,64,53,76,51,36,0.00,40.00,11,8,19,0.00
2013-6-12,95,85,72,71,66,63,83,55,38,0.00,40.00,13,8,21,0.00
2013-6-13,99,87,75,71,65,59,78,52,27,0.00,40.00,9,6,17,0.00
2013-6-14,94,84,73,68,64,61,74,52,37,0.00,40.00,10,6,16,0.00
2013-6-15,86,80,76,73,68,64,81,67,52,0.00,40.00,8,3,14,0.05
2013-6-16,96,84,73,75,68,62,86,62,36,0.00,40.00,11,6,18,0.05
2013-6-17,91,81,68,73,68,64,96,67,48,0.00,40.00,16,8,34,0.31
2013-6-18,89,78,65,73,68,64,98,74,48,0.00,40.00,9,5,37,0.75
2013-6-19,91,76,70,74,69,64,92,79,54,0.00,40.00,11,7,25,0.10
2013-6-20,93,79,70,72,68,65,87,70,42,0.00,40.00,13,8,22,0.10
2013-6-22,95,91,81,69,61,56,66,38,31,0.00,40.00,15,13,27,0.00
2013-6-23,96,86,76,67,60,55,69,45,28,0.00,40.00,17,11,27,0.00
2013-6-24,95,85,74,68,63,58,72,49,32,0.00,40.00,14,11,24,0.00
2013-6-25,98,87,76,70,65,59,75,49,29,0.00,40.00,15,11,26,0.00
2013-6-26,100,89,78,70,66,60,71,49,33,0.00,40.00,13,9,20,0.00
2013-6-27,105,91,79,70,62,54,66,42,19,0.00,40.00,10,6,16,0.00
2013-6-28,105,92,80,66,60,53,53,36,21,0.00,40.00,11,7,17,0.00
2013-6-29,101,88,73,69,62,56,77,46,24,0.00,40.00,9,5,17,0.00
2013-6-30,95,85,75,62,56,51,60,39,25,0.00,40.00,11,7,19,0.00
2013-7-1,87,78,68,55,50,45,58,40,25,0.00,40.00,12,7,22,0.00
2013-7-2,89,77,61,53,46,41,66,37,19,0.00,40.00,12,6,22,0.00
2013-7-3,92,79,64,55,47,42,63,35,18,0.00,40.00,9,5,14,0.00
2013-7-4,98,84,71,58,49,42,55,32,15,0.00,40.00,10,6,17,0.00
2013-7-5,101,87,72,59,52,43,64,34,15,0.00,40.00,12,9,21,0.00
2013-7-6,99,86,75,63,57,51,62,40,22,0.00,40.00,13,8,22,0.00
2013-7-7,99,88,76,68,59,54,64,41,24,0.00,40.00,10,8,19,0.00
2013-7-8,100,86,76,71,67,60,78,55,30,0.00,40.00,12,7,21,0.00
2013-7-9,101,89,77,70,64,57,73,48,24,0.00,40.00,11,8,19,0.00
2013-7-10,102,90,82,69,57,-100,63,37,25,0.00,40.00,11,7,21,0.00
2013-7-11,102,89,81,67,63,59,54,43,29,0.00,40.00,10,7,27,0.00
2013-7-12,103,90,76,70,63,57,75,46,24,0.00,40.00,10,7,17,0.00
2013-7-13,105,92,78,68,61,54,65,38,19,0.00,40.00,10,6,16,0.00
2013-7-14,90,75,66,65,61,57,96,63,38,0.00,40.00,15,9,24,0.34
2013-7-15,72,67,65,69,66,64,98,95,89,0.00,40.00,10,5,16,0.67
2013-7-16,80,78,74,73,71,70,89,80,72,0.00,40.00,11,7,17,1.12
2013-7-17,82,74,70,74,71,68,97,88,73,0.00,40.00,8,5,14,1.17
2013-7-18,92,81,70,74,68,63,99,68,40,0.00,40.00,8,5,15,0.84
2013-7-19,95,84,73,70,67,61,82,59,35,0.00,40.00,8,4,14,0.00
2013-7-20,96,81,73,71,66,-100,86,64,35,0.00,40.00,12,6,30,0.00
2013-7-21,97,85,74,70,68,63,82,58,35,0.00,40.00,10,6,17,0.00
2013-7-22,96,86,76,74,70,65,86,61,41,0.00,40.00,11,8,19,0.00
2013-7-23,97,88,79,75,71,68,78,59,41,0.00,40.00,11,8,19,0.00
2013-7-24,99,86,78,70,67,63,68,54,37,0.00,40.00,15,8,25,0.00
2013-7-25,94,83,76,74,71,67,84,67,48,0.00,40.00,12,7,21,0.00
2013-7-26,96,85,77,78,70,65,89,61,44,0.00,40.00,15,9,25,0.06
2013-7-27,91,80,71,69,64,55,93,63,32,0.00,40.00,9,6,15,0.01
2013-7-28,93,81,68,68,63,56,89,58,31,0.00,40.00,10,6,17,0.00
2013-7-29,97,86,79,73,68,60,75,57,39,0.00,40.00,11,8,18,0.15
2013-7-30,99,88,79,72,67,60,72,52,33,0.00,40.00,15,8,23,0.15
2013-7-31,102,90,80,70,67,63,65,48,33,0.00,40.00,10,6,17,0.00
2013-8-1,101,91,80,76,70,63,81,54,30,0.00,40.00,9,5,15,0.00
2013-8-2,103,91,81,71,64,58,68,42,24,0.00,40.00,12,8,19,0.00
2013-8-3,102,91,80,66,62,56,58,41,24,0.00,40.00,11,8,18,0.00
2013-8-4,102,90,78,70,63,56,69,44,23,0.00,40.00,10,7,19,0.00
2013-8-5,104,92,80,69,63,57,66,41,24,0.00,40.00,11,8,19,0.00
2013-8-6,105,93,81,69,62,58,63,39,22,0.00,40.00,12,10,21,0.00
2013-8-7,107,94,82,68,63,58,58,38,21,0.00,40.00,13,9,21,0.00
2013-8-8,101,87,79,70,64,59,64,48,26,0.00,40.00,14,8,25,0.00
2013-8-9,104,86,74,73,66,61,88,54,27,0.00,40.00,11,6,24,0.20
2013-8-10,98,87,76,73,67,60,84,55,32,0.00,40.00,9,6,16,0.05
2013-8-11,101,86,75,70,66,60,79,53,28,0.00,40.00,14,7,21,0.00
2013-8-12,101,88,76,69,65,59,72,49,27,0.00,40.00,14,6,21,0.00
2013-8-13,99,87,80,68,62,-100,57,45,30,0.00,40.00,13,8,20,0.00
2013-8-14,89,80,73,76,70,66,96,71,53,0.00,40.00,9,6,15,0.33
2013-8-15,90,74,73,72,58,-100,94,68,48,0.00,40.00,10,7,17,0.03
2013-8-16,89,75,64,68,60,-100,94,67,41,0.00,40.00,21,7,34,0.27
2013-8-17,89,78,68,66,59,-100,77,56,38,0.00,40.00,9,6,15,0.01
2013-8-18,91,80,69,62,60,58,73,52,33,0.00,40.00,10,7,16,0.00
2013-8-19,96,78,73,62,50,-100,61,44,26,0.00,40.00,11,7,20,0.00
2013-8-20,96,83,73,63,56,-100,68,44,26,0.00,40.00,10,6,17,0.00
2013-8-21,94,84,75,66,60,53,63,45,30,0.00,40.00,10,6,17,0.00
2013-8-22,97,87,74,68,63,59,76,48,30,0.00,40.00,10,6,19,0.00
2013-8-23,100,86,76,68,64,61,66,49,30,0.00,40.00,9,4,20,0.00
2013-8-24,98,85,75,69,63,-100,76,52,30,0.00,40.00,11,5,21,0.00
2013-8-25,97,86,76,69,65,59,77,53,30,0.00,40.00,11,6,22,0.00
2013-8-26,94,85,75,68,63,59,72,49,32,0.00,40.00,13,8,19,0.00
2013-8-27,84,78,72,71,67,60,83,70,49,0.00,40.00,13,7,24,0.00
2013-8-28,98,92,83,66,60,57,43,35,27,0.00,40.00,8,6,15,0.00
2013-8-29,102,90,78,64,60,57,60,39,24,0.00,40.00,8,5,15,0.00
2013-8-30,104,91,75,64,58,52,61,36,19,0.00,40.00,8,4,21,0.00
2013-8-31,105,91,79,62,55,-100,50,33,20,0.00,40.00,8,5,14,0.00
2013-9-1,107,93,81,63,59,53,50,34,17,0.00,40.00,10,6,19,0.00
2013-9-2,96,86,77,66,63,60,63,47,31,0.00,40.00,12,7,19,0.00
2013-9-3,99,86,76,68,58,41,71,43,18,0.00,40.00,9,5,17,0.00
2013-9-4,101,85,66,65,54,46,66,39,16,0.00,40.00,10,4,16,0.00
2013-9-5,99,88,77,68,63,57,73,46,25,0.00,40.00,10,5,16,0.00
2013-9-6,101,88,76,68,62,57,73,46,26,0.00,40.00,9,4,15,0.00
2013-9-7,98,85,77,65,59,-100,58,44,28,0.00,40.00,10,4,17,0.00
2013-9-8,97,84,72,70,63,58,78,52,29,0.00,40.00,10,7,19,0.00
2013-9-9,95,84,72,68,62,56,80,52,28,0.00,40.00,14,8,24,0.00
2013-9-10,92,82,74,69,64,59,83,57,37,0.00,40.00,13,9,22,0.00
2013-9-11,95,83,71,70,63,55,85,55,26,0.00,40.00,11,5,21,0.00
2013-9-12,96,84,72,69,62,58,65,50,30,0.00,40.00,9,3,16,0.00
2013-9-13,97,84,75,69,65,58,74,54,31,0.00,40.00,9,6,17,0.00
2013-9-14,92,82,75,67,63,-100,75,56,38,0.00,40.00,9,7,16,0.00
2013-9-15,94,84,74,66,62,60,68,48,34,0.00,40.00,10,7,17,0.00
2013-9-16,93,84,76,69,63,57,74,52,34,0.00,40.00,9,5,16,0.08
2013-9-17,88,81,73,69,63,57,78,55,41,0.00,40.00,7,3,12,0.08
2013-9-18,83,80,77,66,64,57,68,59,42,0.00,40.00,7,4,12,0.00
2013-9-19,84,78,73,72,66,57,91,67,42,0.00,40.00,8,4,15,0.03
2013-9-20,73,70,66,70,68,64,97,94,88,0.00,40.00,11,6,19,1.07
2013-9-21,82,68,57,64,51,-100,92,61,29,0.00,40.00,9,6,17,0.01
2013-9-22,85,71,56,62,50,43,96,55,24,0.00,40.00,9,4,13,0.00
2013-9-23,88,74,61,52,49,45,65,45,24,0.00,40.00,12,8,19,0.00
2013-9-24,91,78,66,60,53,45,69,44,23,0.00,40.00,8,5,16,0.00
2013-9-25,94,80,61,59,52,45,75,42,26,0.00,40.00,10,5,17,0.00
2013-9-26,93,82,72,61,56,49,61,42,27,0.00,40.00,14,10,22,0.00
2013-9-27,89,80,72,70,65,50,89,62,38,0.00,40.00,14,10,22,0.00
2013-9-28,80,70,61,72,64,-100,95,84,68,0.00,40.00,13,8,27,0.42
2013-9-29,80,68,58,58,51,45,91,59,30,0.00,40.00,7,5,15,0.03
2013-9-30,90,74,56,55,49,45,70,46,24,0.00,40.00,10,7,17,0.00
2013-10-1,84,79,76,62,61,58,60,54,42,0.00,40.00,10,8,19,0.00
2013-10-2,91,79,70,72,65,60,91,64,38,0.00,40.00,14,9,21,0.00
2013-10-3,94,82,73,71,67,60,88,63,36,0.00,40.00,14,11,24,0.00
2013-10-4,91,81,72,67,65,64,81,60,41,0.00,40.00,14,11,22,0.00
2013-10-5,80,62,51,66,49,33,85,65,39,0.00,40.00,17,9,26,0.09
2013-10-6,76,61,48,47,38,28,91,52,18,0.00,40.00,15,8,22,0.02
2013-10-7,84,73,53,48,39,31,51,31,19,0.00,40.00,8,5,16,0.00
2013-10-8,86,71,56,45,41,37,62,38,18,0.00,40.00,10,8,20,0.00
2013-10-9,86,72,58,50,45,42,62,40,24,0.00,40.00,12,9,20,0.00
2013-10-10,85,75,66,62,57,49,78,55,40,0.00,40.00,14,11,23,0.00
2013-10-11,89,78,69,67,62,58,81,60,36,0.00,40.00,12,8,21,0.00
2013-10-12,90,78,70,68,54,-100,90,52,19,0.00,40.00,9,7,15,0.00
2013-10-13,75,71,68,67,65,53,96,81,49,0.00,40.00,10,7,17,0.00
2013-10-14,76,71,67,72,68,65,97,90,81,0.00,40.00,9,7,16,0.80
2013-10-15,73,61,50,70,58,47,94,90,84,0.00,40.00,13,9,23,0.37
2013-10-16,62,55,51,51,45,40,95,71,49,0.00,40.00,10,7,17,0.22
2013-10-17,73,57,43,46,42,38,90,61,35,0.00,40.00,7,5,13,0.00
2013-10-18,66,58,45,57,50,40,91,74,60,0.00,40.00,19,8,30,0.05
2013-10-19,67,50,37,40,34,-100,93,61,26,0.00,40.00,12,6,27,0.01
2013-10-20,76,61,48,52,44,36,68,55,40,0.00,40.00,14,9,21,0.00
2013-10-21,62,58,51,53,50,46,85,74,64,0.00,40.00,12,6,19,0.00
2013-10-22,77,59,44,48,42,36,96,61,23,0.00,40.00,9,6,14,0.00
2013-10-23,84,67,53,46,41,36,68,42,19,0.00,40.00,9,6,18,0.00
2013-10-24,80,67,53,48,43,40,73,45,25,0.00,40.00,10,6,15,0.00
2013-10-25,74,60,48,52,46,38,72,61,47,0.00,40.00,11,8,18,0.00
2013-10-26,80,66,59,62,55,-100,94,72,50,0.00,40.00,13,9,23,0.18
2013-10-27,70,61,57,58,56,54,98,86,57,0.00,40.00,7,5,14,0.18
2013-10-28,75,65,56,65,59,-100,98,85,67,0.00,40.00,12,8,21,0.01
2013-10-29,81,74,69,68,66,63,85,76,61,0.00,40.00,13,10,21,0.00
2013-10-30,76,72,68,69,66,61,89,81,70,0.00,40.00,13,9,21,0.05
2013-10-31,71,67,56,67,48,32,93,54,30,0.00,40.00,18,9,30,0.02
2013-11-1,71,62,52,42,38,33,64,44,26,0.00,40.00,13,9,24,0.00
2013-11-2,69,56,45,37,31,-100,63,43,22,0.00,40.00,8,5,15,0.00
2013-11-3,67,57,48,40,34,30,53,43,30,0.00,40.00,14,9,24,0.00
2013-11-4,65,61,57,58,51,38,94,71,47,0.00,40.00,11,9,20,0.00
2013-11-5,68,64,60,65,62,58,98,93,85,0.00,40.00,11,8,18,0.04
2013-11-6,67,53,45,65,40,31,95,65,34,0.00,40.00,17,10,24,0.08
2013-11-7,65,50,35,36,31,25,84,54,23,0.00,40.00,6,4,10,0.01
2013-11-8,65,54,43,41,34,26,73,51,25,0.00,40.00,14,7,22,0.00
2013-11-9,73,60,52,53,42,-100,87,53,38,0.00,40.00,11,8,20,0.00
2013-11-10,69,60,51,57,54,50,97,82,60,0.00,40.00,8,6,13,0.00
2013-11-11,73,61,51,58,53,48,94,76,51,0.00,40.00,7,4,12,0.00
2013-11-12,59,44,32,54,26,12,90,55,23,0.00,40.00,16,12,27,0.02
2013-11-13,56,39,21,24,17,12,69,45,19,0.00,40.00,8,5,15,0.02
2013-11-14,60,48,37,38,26,22,61,44,26,0.00,40.00,12,9,19,0.00
2013-11-15,77,60,44,53,42,37,80,55,26,0.00,40.00,10,6,17,0.00
2013-11-16,83,69,60,61,53,-100,78,60,38,0.00,40.00,14,10,25,0.00
2013-11-17,85,73,64,62,46,28,80,46,14,0.00,40.00,15,10,26,0.00
2013-11-18,71,61,54,35,28,21,40,29,15,0.00,40.00,10,7,17,0.00
2013-11-19,71,61,57,40,36,28,47,40,30,0.00,40.00,12,9,20,0.00
2013-11-20,71,62,54,57,50,38,79,65,47,0.00,40.00,14,10,21,0.00
2013-11-21,77,63,37,69,58,33,88,82,68,0.00,40.00,19,8,29,0.03
2013-11-22,37,31,29,33,28,25,94,88,82,0.00,40.00,18,13,31,0.03
2013-11-23,36,32,29,31,26,-100,94,81,53,0.00,40.00,11,9,20,0.23
2013-11-24,36,32,29,28,26,21,90,79,54,0.00,40.00,10,6,19,0.10
2013-11-25,37,34,30,33,31,26,94,90,84,0.00,40.00,9,4,14,0.22
2013-11-26,50,40,34,32,29,22,92,66,34,0.00,40.00,20,11,30,0.06
2013-11-27,47,36,26,26,19,14,76,53,29,0.00,40.00,11,5,16,0.00
2013-11-28,59,44,31,26,23,17,66,45,25,0.00,40.00,9,6,14,0.00
2013-11-29,62,47,34,41,30,24,81,54,28,0.00,40.00,9,6,17,0.00
2013-11-30,69,54,42,50,44,-100,95,75,49,0.00,40.00,12,7,21,0.00
2013-12-1,68,59,53,53,50,43,88,71,57,0.00,40.00,11,7,20,0.00
2013-12-2,70,55,43,46,38,31,96,59,25,0.00,40.00,7,4,13,0.00
2013-12-3,81,66,49,37,29,21,63,28,13,0.00,40.00,11,7,20,0.00
2013-12-4,67,60,43,43,38,29,58,43,26,0.00,40.00,11,8,23,0.00
2013-12-5,43,29,22,29,17,9,89,62,40,0.00,40.00,15,12,28,0.00
2013-12-6,26,22,20,18,16,9,87,76,63,0.00,40.00,14,10,23,0.00
2013-12-7,21,18,15,13,6,-100,70,61,56,0.00,40.00,9,6,15,0.00
2013-12-8,44,30,21,27,21,13,82,69,49,0.00,40.00,8,4,13,0.36
2013-12-9,32,29,24,28,24,17,95,81,67,0.00,40.00,11,7,18,0.02
2013-12-10,44,31,17,19,16,12,82,57,32,0.00,40.00,8,5,14,0.06
2013-12-11,42,36,31,25,23,19,75,59,50,0.00,40.00,9,6,17,0.02
2013-12-12,48,36,23,29,25,21,92,68,43,0.00,40.00,5,3,10,0.00
2013-12-13,56,47,38,46,38,29,85,71,58,0.00,40.00,12,7,23,0.02
2013-12-14,55,41,33,41,29,-100,91,66,47,0.00,40.00,14,10,26,0.01
2013-12-15,64,47,32,31,25,23,71,47,23,0.00,40.00,7,5,13,0.00
2013-12-16,70,55,43,32,27,25,50,36,19,0.00,40.00,8,6,13,0.00
2013-12-17,70,59,43,34,32,28,59,38,23,0.00,40.00,5,4,10,0.00
2013-12-18,71,63,48,46,40,33,64,45,28,0.00,40.00,12,8,22,0.00
2013-12-19,71,62,54,53,50,45,84,67,50,0.00,40.00,15,10,26,0.00
2013-12-20,61,44,31,55,41,28,93,87,76,0.00,40.00,12,7,21,0.00
2013-12-21,44,38,32,42,35,-100,97,94,92,0.00,40.00,8,4,15,1.51
2013-12-22,42,34,29,38,27,24,97,75,52,0.00,40.00,12,8,20,0.02
2013-12-23,50,36,24,29,26,22,93,70,40,0.00,40.00,6,3,10,0.01
2013-12-24,59,41,26,33,28,24,93,65,34,0.00,40.00,12,8,24,0.01
2013-12-25,45,40,33,33,30,25,87,68,52,0.00,40.00,10,6,18,0.00
2013-12-26,56,40,27,34,26,22,93,64,27,0.00,40.00,5,4,9,0.00
2013-12-27,57,43,27,30,24,19,85,50,22,0.00,40.00,5,3,15,0.00
2013-12-28,60,49,39,45,36,-100,88,64,51,0.00,40.00,10,5,16,0.00
2013-12-29,47,35,27,44,33,22,97,90,81,0.00,40.00,15,7,29,0.01
2013-12-30,45,33,23,27,20,18,83,62,36,0.00,40.00,6,3,12,0.01
2013-12-31,58,41,24,29,25,20,86,57,31,0.00,40.00,9,5,15,0.00
2014-1-1,70,51,33,38,32,22,71,52,26,0.00,40.00,17,11,30,0.00
2014-1-2,43,32,23,23,16,14,75,55,33,0.00,40.00,14,8,25,0.00